createdAt,value
2019-02-22T00:01:36.498Z,101478.06
2019-02-22T00:04:40.132Z,101483.36
2019-02-22T00:07:43.283Z,101495.23
2019-02-22T00:10:46.318Z,101484.66
2019-02-22T00:13:49.277Z,101491.30
2019-02-22T00:16:52.830Z,101490.86
2019-02-22T00:19:55.784Z,101491.70
2019-02-22T00:22:59.016Z,101497.44
2019-02-22T00:26:01.961Z,101497.87
2019-02-22T00:29:05.347Z,101506.69
2019-02-22T00:32:08.317Z,101503.19
2019-02-22T00:35:11.370Z,101498.34
2019-02-22T00:38:14.638Z,101506.70
2019-02-22T00:41:18.378Z,101515.97
2019-02-22T00:44:21.378Z,101512.02
2019-02-22T00:47:24.653Z,101512.45
2019-02-22T00:50:27.812Z,101505.38
2019-02-22T00:53:30.787Z,101517.30
2019-02-22T00:56:34.036Z,101511.56
2019-02-22T00:59:37.309Z,101511.13
2019-02-22T01:02:40.258Z,101524.33
2019-02-22T01:05:43.473Z,101525.63
2019-02-22T01:08:46.980Z,101531.39
2019-02-22T01:11:49.915Z,101536.63
2019-02-22T01:14:53.187Z,101546.83
2019-02-22T01:17:56.433Z,101549.03
2019-02-22T01:20:59.416Z,101545.96
2019-02-22T01:24:03.049Z,101546.41
2019-02-22T01:27:07.092Z,101548.59
2019-02-22T01:30:10.154Z,101544.17
2019-02-22T01:33:13.192Z,101545.92
2019-02-22T01:36:16.424Z,101554.35
2019-02-22T01:39:19.378Z,101560.52
2019-02-22T01:42:22.668Z,101564.06
2019-02-22T01:45:25.937Z,101567.59
2019-02-22T01:48:29.186Z,101564.94
2019-02-22T01:51:32.158Z,101569.80
2019-02-22T01:54:35.401Z,101564.94
2019-02-22T01:57:38.640Z,101566.25
2019-02-22T02:00:41.606Z,101561.42
2019-02-22T02:03:44.547Z,101557.00
2019-02-22T02:06:47.711Z,101556.58
2019-02-22T02:09:50.646Z,101563.16
2019-02-22T02:12:53.948Z,101564.06
2019-02-22T02:15:57.212Z,101567.16
2019-02-22T02:19:00.165Z,101568.02
2019-02-22T02:22:03.492Z,101573.76
2019-02-22T02:25:07.804Z,101576.86
2019-02-22T02:28:10.763Z,101578.12
2019-02-22T02:31:14.680Z,101587.84
2019-02-22T02:34:17.927Z,101588.31
2019-02-22T02:37:21.191Z,101580.38
2019-02-22T02:40:24.436Z,101584.78
2019-02-22T02:43:28.001Z,101587.46
2019-02-22T02:46:31.226Z,101583.05
2019-02-22T02:49:34.156Z,101583.91
2019-02-22T02:52:37.779Z,101585.66
2019-02-22T02:55:41.026Z,101590.06
2019-02-22T02:58:43.984Z,101579.05
2019-02-22T03:01:46.930Z,101584.36
2019-02-22T03:04:50.192Z,101586.56
2019-02-22T03:07:53.602Z,101580.83
2019-02-22T03:10:56.651Z,101578.19
2019-02-22T03:13:59.879Z,101580.39
2019-02-22T03:17:02.931Z,101587.44
2019-02-22T03:20:06.034Z,101576.39
2019-02-22T03:23:09.582Z,101582.14
2019-02-22T03:26:12.524Z,101586.13
2019-02-22T03:29:15.799Z,101590.10
2019-02-22T03:32:18.762Z,101592.73
2019-02-22T03:35:22.461Z,101592.77
2019-02-22T03:38:25.707Z,101586.13
2019-02-22T03:41:33.050Z,101600.22
2019-02-22T03:44:33.829Z,101599.78
2019-02-22T03:47:36.766Z,101607.74
2019-02-22T03:50:40.358Z,101617.91
2019-02-22T03:53:47.295Z,101616.13
2019-02-22T03:56:50.592Z,101627.58
2019-02-22T03:59:53.662Z,101632.88
2019-02-22T04:02:56.592Z,101640.84
2019-02-22T04:05:59.542Z,101644.81
2019-02-22T04:09:04.633Z,101654.51
2019-02-22T04:12:08.673Z,101658.48
2019-02-22T04:15:11.641Z,101665.97
2019-02-22T04:18:14.829Z,101674.81
2019-02-22T04:21:18.092Z,101671.25
2019-02-22T04:24:21.733Z,101679.61
2019-02-22T04:27:24.664Z,101677.02
2019-02-22T04:30:27.895Z,101686.23
2019-02-22T04:33:30.828Z,101684.91
2019-02-22T04:36:34.098Z,101680.94
2019-02-22T04:39:37.367Z,101669.47
2019-02-22T04:42:40.624Z,101679.61
2019-02-22T04:45:43.896Z,101683.59
2019-02-22T04:48:47.120Z,101683.61
2019-02-22T04:51:50.959Z,101686.68
2019-02-22T04:54:54.486Z,101686.71
2019-02-22T04:57:57.760Z,101684.95
2019-02-22T05:01:00.721Z,101681.87
2019-02-22T05:04:03.641Z,101691.12
2019-02-22T05:07:06.596Z,101688.05
2019-02-22T05:10:09.804Z,101684.05
2019-02-22T05:13:12.759Z,101686.28
2019-02-22T05:16:15.719Z,101687.12
2019-02-22T05:19:19.238Z,101686.68
2019-02-22T05:22:22.287Z,101688.88
2019-02-22T05:25:25.827Z,101699.93
2019-02-22T05:28:28.790Z,101698.14
2019-02-22T05:31:32.265Z,101696.81
2019-02-22T05:34:35.808Z,101700.83
2019-02-22T05:37:38.765Z,101708.32
2019-02-22T05:40:42.315Z,101703.91
2019-02-22T05:43:45.596Z,101705.66
2019-02-22T05:46:59.679Z,101711.42
2019-02-22T05:49:53.982Z,101718.02
2019-02-22T05:52:57.492Z,101718.44
2019-02-22T05:56:00.738Z,101721.98
2019-02-22T05:59:04.360Z,101728.63
2019-02-22T06:02:07.330Z,101732.56
2019-02-22T06:05:10.539Z,101738.72
2019-02-22T06:08:13.825Z,101743.14
2019-02-22T06:11:16.763Z,101752.42
2019-02-22T06:14:19.722Z,101759.49
2019-02-22T06:17:22.654Z,101759.49
2019-02-22T06:20:25.949Z,101760.77
2019-02-22T06:23:28.909Z,101764.30
2019-02-22T06:26:31.959Z,101768.70
2019-02-22T06:29:34.908Z,101780.17
2019-02-22T06:32:38.177Z,101773.56
2019-02-22T06:35:41.383Z,101774.91
2019-02-22T06:38:46.585Z,101777.53
2019-02-22T06:41:49.583Z,101787.25
2019-02-22T06:44:52.908Z,101794.30
2019-02-22T06:47:56.132Z,101795.18
2019-02-22T06:50:59.092Z,101793.84
2019-02-22T06:54:03.429Z,101789.91
2019-02-22T06:57:06.678Z,101794.77
2019-02-22T07:00:10.595Z,101795.64
2019-02-22T07:03:13.528Z,101792.13
2019-02-22T07:06:16.487Z,101791.17
2019-02-22T07:09:19.431Z,101800.93
2019-02-22T07:12:32.401Z,101807.07
2019-02-22T07:15:35.689Z,101802.25
2019-02-22T07:18:39.238Z,101815.03
2019-02-22T07:21:52.164Z,101813.31
2019-02-22T07:24:47.714Z,101822.56
2019-02-22T07:27:50.693Z,101824.34
2019-02-22T07:30:53.958Z,101836.64
2019-02-22T07:33:56.920Z,101839.31
2019-02-22T07:37:00.136Z,101846.38
2019-02-22T07:40:03.209Z,101845.97
2019-02-22T07:43:08.274Z,101850.33
2019-02-22T07:46:11.697Z,101860.52
2019-02-22T07:49:23.785Z,101856.13
2019-02-22T07:52:26.731Z,101857.47
2019-02-22T07:55:30.014Z,101867.60
2019-02-22T07:58:32.989Z,101871.62
2019-02-22T08:01:46.802Z,101878.69
2019-02-22T08:04:40.908Z,101883.53
2019-02-22T08:07:43.852Z,101892.36
2019-02-22T08:10:46.807Z,101892.42
2019-02-22T08:13:50.159Z,101902.50
2019-02-22T08:16:53.467Z,101910.88
2019-02-22T08:19:56.522Z,101923.23
2019-02-22T08:22:59.849Z,101922.35
2019-02-22T08:26:02.807Z,101922.88
2019-02-22T08:29:05.817Z,101927.72
2019-02-22T08:32:09.781Z,101929.05
2019-02-22T08:35:12.747Z,101937.89
2019-02-22T08:38:16.005Z,101941.02
2019-02-22T08:41:19.241Z,101942.78
2019-02-22T08:44:22.492Z,101956.91
2019-02-22T08:47:25.460Z,101955.62
2019-02-22T08:50:28.405Z,101951.20
2019-02-22T08:53:31.626Z,101968.81
2019-02-22T08:56:34.590Z,101968.42
2019-02-22T08:59:37.744Z,101973.30
2019-02-22T09:02:40.700Z,101964.95
2019-02-22T09:05:43.722Z,101972.48
2019-02-22T09:08:47.696Z,101976.86
2019-02-22T09:11:50.975Z,101979.11
2019-02-22T09:14:54.286Z,101977.84
2019-02-22T09:17:58.529Z,101984.06
2019-02-22T09:21:01.785Z,101983.18
2019-02-22T09:24:04.752Z,101992.87
2019-02-22T09:27:07.970Z,101992.92
2019-02-22T09:30:11.240Z,101996.94
2019-02-22T09:33:14.564Z,101997.77
2019-02-22T09:36:18.500Z,102003.13
2019-02-22T09:39:21.778Z,101999.66
2019-02-22T09:42:24.723Z,102003.61
2019-02-22T09:45:27.988Z,101996.98
2019-02-22T09:48:31.285Z,102003.27
2019-02-22T09:51:34.219Z,102000.18
2019-02-22T09:54:37.179Z,102005.45
2019-02-22T09:57:40.249Z,102009.78
2019-02-22T10:00:43.565Z,102012.47
2019-02-22T10:03:47.182Z,102011.64
2019-02-22T10:06:50.163Z,102007.34
2019-02-22T10:09:53.481Z,102001.64
2019-02-22T10:12:56.421Z,102012.72
2019-02-22T10:16:00.392Z,102012.30
2019-02-22T10:19:04.349Z,102018.88
2019-02-22T10:22:07.616Z,102031.17
2019-02-22T10:25:12.205Z,102024.58
2019-02-22T10:28:18.055Z,102025.56
2019-02-22T10:31:20.450Z,102020.70
2019-02-22T10:34:23.425Z,102022.58
2019-02-22T10:37:26.390Z,102024.83
2019-02-22T10:40:29.964Z,102026.13
2019-02-22T10:43:33.792Z,102024.28
2019-02-22T10:46:36.822Z,102032.23
2019-02-22T10:49:40.343Z,102032.12
2019-02-22T10:52:43.633Z,102040.45
2019-02-22T10:55:46.585Z,102043.55
2019-02-22T10:58:49.845Z,102051.92
2019-02-22T11:01:52.876Z,102059.95
2019-02-22T11:04:56.083Z,102056.42
2019-02-22T11:07:59.325Z,102054.16
2019-02-22T11:11:02.791Z,102047.13
2019-02-22T11:14:07.622Z,102040.13
2019-02-22T11:17:10.610Z,102036.58
2019-02-22T11:20:14.237Z,102036.08
2019-02-22T11:23:17.907Z,102042.27
2019-02-22T11:26:20.987Z,102047.58
2019-02-22T11:29:24.236Z,102038.24
2019-02-22T11:32:31.014Z,102048.00
2019-02-22T11:35:33.960Z,102044.00
2019-02-22T11:38:37.495Z,102047.99
2019-02-22T11:41:40.735Z,102045.34
2019-02-22T11:44:43.691Z,102050.30
2019-02-22T11:47:46.928Z,102039.87
2019-02-22T11:50:50.135Z,102049.64
2019-02-22T11:53:53.404Z,102049.12
2019-02-22T11:56:56.605Z,102060.12
2019-02-22T11:59:59.562Z,102062.75
2019-02-22T12:03:15.870Z,102069.00
2019-02-22T12:06:08.059Z,102071.28
2019-02-22T12:09:11.401Z,102075.44
2019-02-22T12:12:14.845Z,102080.61
2019-02-22T12:15:18.212Z,102091.73
2019-02-22T12:18:21.538Z,102088.64
2019-02-22T12:21:25.423Z,102086.36
2019-02-22T12:24:28.680Z,102077.92
2019-02-22T12:27:31.628Z,102077.02
2019-02-22T12:30:34.616Z,102085.42
2019-02-22T12:33:37.680Z,102085.52
2019-02-22T12:36:40.917Z,102082.48
2019-02-22T12:39:44.511Z,102088.20
2019-02-22T12:42:47.454Z,102084.70
2019-02-22T12:45:50.414Z,102090.47
2019-02-22T12:48:53.352Z,102093.55
2019-02-22T12:51:56.893Z,102094.84
2019-02-22T12:54:59.852Z,102096.56
2019-02-22T12:58:03.072Z,102094.78
2019-02-22T13:01:06.043Z,102100.95
2019-02-22T13:04:09.028Z,102103.16
2019-02-22T13:07:12.081Z,102110.20
2019-02-22T13:10:16.183Z,102108.44
2019-02-22T13:13:19.141Z,102104.47
2019-02-22T13:16:22.100Z,102098.28
2019-02-22T13:19:25.415Z,102103.14
2019-02-22T13:22:28.715Z,102099.16
2019-02-22T13:25:31.967Z,102101.86
2019-02-22T13:28:34.900Z,102097.51
2019-02-22T13:31:37.878Z,102094.36
2019-02-22T13:34:41.898Z,102095.67
2019-02-22T13:37:44.956Z,102112.48
2019-02-22T13:40:49.691Z,102116.91
2019-02-22T13:43:52.827Z,102112.05
2019-02-22T13:46:56.075Z,102116.45
2019-02-22T13:49:59.543Z,102115.13
2019-02-22T13:53:02.505Z,102114.69
2019-02-22T13:56:05.811Z,102112.48
2019-02-22T13:59:09.031Z,102121.83
2019-02-22T14:02:12.253Z,102133.70
2019-02-22T14:05:15.640Z,102137.20
2019-02-22T14:08:18.878Z,102134.08
2019-02-22T14:11:22.137Z,102134.06
2019-02-22T14:14:25.769Z,102130.92
2019-02-22T14:17:28.723Z,102130.05
2019-02-22T14:20:31.949Z,102126.06
2019-02-22T14:23:35.561Z,102125.59
2019-02-22T14:26:38.509Z,102118.54
2019-02-22T14:29:42.185Z,102129.20
2019-02-22T14:32:45.326Z,102125.64
2019-02-22T14:35:48.891Z,102119.91
2019-02-22T14:38:51.856Z,102118.61
2019-02-22T14:41:54.865Z,102114.63
2019-02-22T14:44:58.128Z,102118.16
2019-02-22T14:48:01.911Z,102119.91
2019-02-22T14:51:05.290Z,102118.63
2019-02-22T14:54:08.258Z,102117.33
2019-02-22T14:57:13.181Z,102112.01
2019-02-22T15:00:18.066Z,102122.16
2019-02-22T15:03:21.127Z,102126.98
2019-02-22T15:06:24.734Z,102139.86
2019-02-22T15:09:27.744Z,102138.91
2019-02-22T15:12:31.039Z,102140.22
2019-02-22T15:16:00.960Z,102131.81
2019-02-22T15:19:11.236Z,102136.68
2019-02-22T15:22:14.759Z,102137.97
2019-02-22T15:25:18.028Z,102138.41
2019-02-22T15:28:21.009Z,102136.63
2019-02-22T15:31:24.073Z,102150.38
2019-02-22T15:34:27.047Z,102146.39
2019-02-22T15:37:30.033Z,102146.79
2019-02-22T15:40:33.051Z,102148.12
2019-02-22T15:43:36.107Z,102164.47
2019-02-22T15:46:39.642Z,102159.56
2019-02-22T15:49:43.135Z,102166.20
2019-02-22T15:52:47.465Z,102163.11
2019-02-22T15:55:51.165Z,102155.56
2019-02-22T15:58:54.366Z,102151.54
2019-02-22T16:01:57.598Z,102152.04
2019-02-22T16:05:05.049Z,102150.77
2019-02-22T16:08:09.020Z,102153.33
2019-02-22T16:11:12.323Z,102157.33
2019-02-22T16:14:15.590Z,102154.67
2019-02-22T16:17:18.817Z,102151.54
2019-02-22T16:20:21.781Z,102146.70
2019-02-22T16:23:24.730Z,102148.45
2019-02-22T16:26:30.005Z,102149.80
2019-02-22T16:29:33.638Z,102148.94
2019-02-22T16:32:36.887Z,102153.80
2019-02-22T16:35:40.144Z,102164.70
2019-02-22T16:38:43.117Z,102171.44
2019-02-22T16:41:46.094Z,102170.98
2019-02-22T16:44:49.095Z,102177.17
2019-02-22T16:47:52.364Z,102177.53
2019-02-22T16:50:55.443Z,102177.51
2019-02-22T16:53:58.679Z,102176.14
2019-02-22T16:57:02.025Z,102174.88
2019-02-22T17:00:05.896Z,102185.48
2019-02-22T17:03:11.040Z,102185.46
2019-02-22T17:06:14.682Z,102185.00
2019-02-22T17:09:18.056Z,102188.13
2019-02-22T17:12:21.135Z,102196.17
2019-02-22T17:15:24.420Z,102200.57
2019-02-22T17:18:27.383Z,102211.20
2019-02-22T17:21:30.873Z,102209.80
2019-02-22T17:24:34.145Z,102223.03
2019-02-22T17:27:37.104Z,102231.98
2019-02-22T17:30:40.344Z,102235.38
2019-02-22T17:33:43.688Z,102234.09
2019-02-22T17:36:46.915Z,102229.59
2019-02-22T17:39:50.207Z,102230.02
2019-02-22T17:42:53.137Z,102228.27
2019-02-22T17:45:56.629Z,102223.37
2019-02-22T17:49:00.385Z,102218.43
2019-02-22T17:52:03.874Z,102218.42
2019-02-22T17:55:07.713Z,102229.42
2019-02-22T17:58:11.525Z,102228.11
2019-02-22T18:01:15.042Z,102219.16
2019-02-22T18:04:18.284Z,102218.67
2019-02-22T18:07:21.246Z,102220.01
2019-02-22T18:10:24.513Z,102226.20
2019-02-22T18:13:28.190Z,102239.84
2019-02-22T18:16:31.144Z,102238.88
2019-02-22T18:19:34.103Z,102245.03
2019-02-22T18:22:37.436Z,102253.13
2019-02-22T18:25:40.401Z,102253.46
2019-02-22T18:28:44.081Z,102254.73
2019-02-22T18:31:47.657Z,102250.17
2019-02-22T18:34:50.585Z,102245.08
2019-02-22T18:37:54.159Z,102249.84
2019-02-22T18:40:57.403Z,102251.76
2019-02-22T18:44:00.602Z,102248.54
2019-02-22T18:47:03.585Z,102241.80
2019-02-22T18:50:07.530Z,102234.93
2019-02-22T18:53:10.845Z,102232.00
2019-02-22T18:56:14.122Z,102236.23
2019-02-22T18:59:17.065Z,102237.80
2019-02-22T19:02:20.325Z,102237.50
2019-02-22T19:05:23.691Z,102228.26
2019-02-22T19:08:32.513Z,102227.16
2019-02-22T19:11:31.883Z,102224.92
2019-02-22T19:14:35.145Z,102234.13
2019-02-22T19:17:38.130Z,102224.13
2019-02-22T19:20:41.339Z,102219.86
2019-02-22T19:23:44.466Z,102216.16
2019-02-22T19:26:47.421Z,102210.81
2019-02-22T19:29:50.608Z,102216.27
2019-02-22T19:32:53.679Z,102213.41
2019-02-22T19:35:56.888Z,102223.30
2019-02-22T19:39:00.439Z,102227.70
2019-02-22T19:42:03.992Z,102231.48
2019-02-22T19:45:07.793Z,102234.80
2019-02-22T19:48:11.081Z,102243.55
2019-02-22T19:51:14.308Z,102246.47
2019-02-22T19:54:17.563Z,102263.06
2019-02-22T19:57:20.548Z,102264.73
2019-02-22T20:00:23.735Z,102269.88
2019-02-22T20:03:27.585Z,102259.42
2019-02-22T20:06:30.915Z,102263.45
2019-02-22T20:09:34.433Z,102263.14
2019-02-22T20:12:37.511Z,102266.20
2019-02-22T20:15:40.852Z,102257.53
2019-02-22T20:18:44.095Z,102264.13
2019-02-22T20:21:47.757Z,102275.77
2019-02-22T20:24:51.034Z,102276.06
2019-02-22T20:27:53.989Z,102269.33
2019-02-22T20:30:57.215Z,102279.03
2019-02-22T20:34:00.405Z,102275.59
2019-02-22T20:37:03.872Z,102273.52
2019-02-22T20:40:07.608Z,102271.23
2019-02-22T20:43:10.966Z,102270.34
2019-02-22T20:46:14.317Z,102274.45
2019-02-22T20:49:17.821Z,102285.39
2019-02-22T20:52:20.905Z,102295.90
2019-02-22T20:55:25.434Z,102295.18
2019-02-22T20:58:28.928Z,102299.19
2019-02-22T21:01:31.886Z,102301.42
2019-02-22T21:04:35.174Z,102301.57
2019-02-22T21:07:38.787Z,102294.60
2019-02-22T21:10:41.761Z,102290.64
2019-02-22T21:13:45.674Z,102298.23
2019-02-22T21:16:48.622Z,102304.50
2019-02-22T21:19:52.267Z,102304.42
2019-02-22T21:22:55.548Z,102311.98
2019-02-22T21:25:58.531Z,102314.10
2019-02-22T21:29:01.838Z,102308.41
2019-02-22T21:32:04.801Z,102301.81
2019-02-22T21:35:08.360Z,102302.56
2019-02-22T21:38:12.225Z,102301.77
2019-02-22T21:41:16.444Z,102306.70
2019-02-22T21:44:20.948Z,102308.23
2019-02-22T21:47:24.070Z,102320.98
2019-02-22T21:50:27.073Z,102310.19
2019-02-22T21:53:30.669Z,102319.13
2019-02-22T21:56:33.887Z,102312.55
2019-02-22T21:59:37.243Z,102321.87
2019-02-22T22:02:40.815Z,102321.14
2019-02-22T22:05:44.586Z,102323.46
2019-02-22T22:08:48.129Z,102323.93
2019-02-22T22:11:51.735Z,102311.18
2019-02-22T22:14:54.764Z,102311.17
2019-02-22T22:17:58.259Z,102311.66
2019-02-22T22:21:02.217Z,102308.80
2019-02-22T22:24:05.171Z,102312.83
2019-02-22T22:27:08.162Z,102314.13
2019-02-22T22:30:11.489Z,102317.02
2019-02-22T22:33:14.686Z,102318.53
2019-02-22T22:36:17.930Z,102311.13
2019-02-22T22:39:20.892Z,102324.20
2019-02-22T22:42:23.839Z,102329.80
2019-02-22T22:45:27.897Z,102331.79
2019-02-22T22:48:31.553Z,102327.80
2019-02-22T22:51:34.849Z,102332.15
2019-02-22T22:54:38.143Z,102331.36
2019-02-22T22:57:41.381Z,102333.25
2019-02-22T23:01:07.787Z,102325.05
2019-02-22T23:04:11.702Z,102319.10
2019-02-22T23:07:15.073Z,102318.41
2019-02-22T23:10:18.226Z,102318.66
2019-02-22T23:13:21.290Z,102317.05
2019-02-22T23:16:24.681Z,102319.35
2019-02-22T23:19:28.252Z,102331.39
2019-02-22T23:22:31.538Z,102326.90
2019-02-22T23:25:34.474Z,102325.84
2019-02-22T23:28:37.556Z,102328.47
2019-02-22T23:31:40.616Z,102334.48
2019-02-22T23:34:43.839Z,102334.39
2019-02-22T23:37:48.078Z,102338.64
2019-02-22T23:40:51.334Z,102339.89
2019-02-22T23:43:54.541Z,102334.34
2019-02-22T23:46:57.517Z,102333.55
2019-02-22T23:50:00.722Z,102326.98
2019-02-22T23:53:03.681Z,102329.36
2019-02-22T23:56:06.951Z,102330.45
2019-02-22T23:59:10.273Z,102328.90
